Address 0x464fd6b8e4dde4352117940a07d7cc93269a77bb 7

 
Txn Hash Method
Block
From
To
Value [Txn Fee]
0xbf3b2b7cf5c374768f1daa1ff9078ba166d6d657d0b39ccdc8ee6c80cf6eb4c6Increase Positio...33871372021-11-27 21:01:371 hr 50 mins ago0x464fd6b8e4dde4352117940a07d7cc93269a77bbOUT 0xabbc5f99639c9b6bcb58544ddf04efa6802f40640.2 ETH0.000958367802 ETH
0x14cf7c0fe27dc245cba3e8ea214f88746b6747e2660987cdfe812cb1bc42c1bfMulticall33871192021-11-27 21:00:531 hr 51 mins ago0x464fd6b8e4dde4352117940a07d7cc93269a77bbOUT Uniswap V3: Router0 ETH0.001100710259 ETH
0x955391aa1e303420c956a780d176c40781c3c2d2ca8f6776cceada994c9ea710Multicall33871102021-11-27 21:00:531 hr 51 mins ago0x464fd6b8e4dde4352117940a07d7cc93269a77bbOUT Uniswap V3: Positions NFT0 ETH0.00134868925 ETH
0xceee5665102336e2acac3e015fa1229136840215e7ad226b1c5306fd1ee2ce8aDeposit All33870522021-11-27 20:56:431 hr 55 mins ago0x464fd6b8e4dde4352117940a07d7cc93269a77bbOUT 0x149f3ddeb5ff9be7342d07c35d6da19df3f790af0 ETH0.000887137517 ETH
0x9fc671389da5ccedb3dc93a44a5995c1c392302f60a81e34947a9d53dbacca33Withdraw And Har...33870442021-11-27 20:56:431 hr 55 mins ago0x464fd6b8e4dde4352117940a07d7cc93269a77bbOUT 0xf4d73326c13a4fc5fd7a064217e12780e9bd62c30 ETH0.00116588548 ETH
0xfb4a5374951f3dcd12c1ff5b5c86383d3664242e228bcb82d041c9157bdd0495Buy Accesory33869752021-11-27 20:53:491 hr 58 mins ago0x464fd6b8e4dde4352117940a07d7cc93269a77bbOUT 0x58b1422b21d58ae6073ba7b28fee62f704fc25390 ETH0.000695093667 ETH
0x715795c6b1ab4cb3f9cbb3c417816ff5393b3ee241173bb80ae0e2ac8e4489fcClaim Mining Rew...33869612021-11-27 20:52:271 hr 59 mins ago0x464fd6b8e4dde4352117940a07d7cc93269a77bbOUT 0x58b1422b21d58ae6073ba7b28fee62f704fc25390 ETH0.000681743856 ETH
0xafbe90df0d912cdd41d15b303b3c2f63d17ff92278790334a7da812a36e1073dFeed Multiple33869562021-11-27 20:52:271 hr 59 mins ago0x464fd6b8e4dde4352117940a07d7cc93269a77bbOUT 0x58b1422b21d58ae6073ba7b28fee62f704fc25390 ETH0.000962348315 ETH
0xcabdcecc93f8a2e6bffd7876947e1a7b171cc6f8689967f7a161492c0c22e5b5Deposit33867342021-11-27 20:40:072 hrs 12 mins ago0x464fd6b8e4dde4352117940a07d7cc93269a77bbOUT 0xf4d73326c13a4fc5fd7a064217e12780e9bd62c30 ETH0.001563654111 ETH
0xb927ce499a7a023d494f46daca203e9bc79688d298eae220c9ca4a315849b346Add Liquidity ET...33867292021-11-27 20:40:072 hrs 12 mins ago0x464fd6b8e4dde4352117940a07d7cc93269a77bbOUT SushiSwap: Router0.674416800907741 ETH0.001291992936 ETH
0x2750391e55be0e30d4c5e4408ee9075b9304ec2aa6a55c8c2bc02b11949615a1Unstake And Rede...33867122021-11-27 20:39:322 hrs 12 mins ago0x464fd6b8e4dde4352117940a07d7cc93269a77bbOUT 0xa906f338cb21815cbc4bc87ace9e68c87ef8d8f10 ETH0.000901724992 ETH
0x2f14e30b4034a6916162f0b71c8006e55b57aecb3f43a712eb92974b636b5dd4Swap Exact Token...33866942021-11-27 20:38:182 hrs 13 mins ago0x464fd6b8e4dde4352117940a07d7cc93269a77bbOUT SushiSwap: Router0 ETH0.001107182252 ETH
0x7e18156e4352d642ad2a342b447aa38bae71798b78b7b3a0cd8ed624924265dbSwap Exact Token...33866912021-11-27 20:38:182 hrs 13 mins ago0x464fd6b8e4dde4352117940a07d7cc93269a77bbOUT SushiSwap: Router0 ETH0.001561361505 ETH
0xfa2b37cd79e5b292b5cd87b74fe6bcfb38fa23440e155da1b3dc846cdb3ccfe8Exchange_underly...33866262021-11-27 20:35:512 hrs 16 mins ago0x464fd6b8e4dde4352117940a07d7cc93269a77bbOUT 0x25e2e8d104bc1a70492e2be32da7c1f8367f9d2c0 ETH0.000785462315 ETH
0x9bf3f54eec14642b6944b92658117476caaa758fdedac28f10e7d3e0bcdd3ea6Remove_liquidity33866132021-11-27 20:35:282 hrs 16 mins ago0x464fd6b8e4dde4352117940a07d7cc93269a77bbOUT 0x25e2e8d104bc1a70492e2be32da7c1f8367f9d2c0 ETH0.001357412459 ETH
0x8645597fc5e3e684c26518dc177dbfd297f9e063ec4c4e2bf77659a7f01193b9Withdraw33866102021-11-27 20:35:282 hrs 16 mins ago0x464fd6b8e4dde4352117940a07d7cc93269a77bbOUT 0x37c7ef6b0e23c9bd9b620a6dabbfec13ce30d8240 ETH0.000896896487 ETH
0xc31ad530a83eb7e5899ebbf2f543f5e2e5457e0791c1d750089d92c921ab5c38Redeem33857012021-11-27 19:37:233 hrs 14 mins ago0x464fd6b8e4dde4352117940a07d7cc93269a77bbOUT 0x546c928b1b2263c292cf45922a48ddfacd9c10b60 ETH0.000726495474 ETH
0x404afdeb04e80ee6e954803a3323b77f0226784e90a53655610de516e52f574dMulticall33856982021-11-27 19:36:523 hrs 15 mins ago0x464fd6b8e4dde4352117940a07d7cc93269a77bbOUT Uniswap V3: Positions NFT0.57000189845402 ETH0.000978950278 ETH
0xc22804b57e34776664fd67eb711085805230e764e9fce7b031d24cff723daab1Multicall33856872021-11-27 19:35:313 hrs 16 mins ago0x464fd6b8e4dde4352117940a07d7cc93269a77bbOUT Uniswap V3: Positions NFT0 ETH0.001151071516 ETH
0x2eee235359c55fb483dfbe0c7855790a550447c8bf041b70eeae2f63aae82897Unstake Gmx33856822021-11-27 19:34:563 hrs 17 mins ago0x464fd6b8e4dde4352117940a07d7cc93269a77bbOUT 0xa906f338cb21815cbc4bc87ace9e68c87ef8d8f10 ETH0.000934723212 ETH
0x106cb9ddda2ce7b6e780ef6affa58362e3f9b87c7194c710c7ef394346a76cb8Unstake And Rede...33856752021-11-27 19:34:563 hrs 17 mins ago0x464fd6b8e4dde4352117940a07d7cc93269a77bbOUT 0xa906f338cb21815cbc4bc87ace9e68c87ef8d8f10 ETH0.000890951672 ETH
0x90ec16ee7247c1b8d872ef259d2cc70ea9f98d59c140bfc07b087f6c8117b9b8Stake Gmx33755032021-11-27 9:21:4013 hrs 30 mins ago0x464fd6b8e4dde4352117940a07d7cc93269a77bbOUT 0xa906f338cb21815cbc4bc87ace9e68c87ef8d8f10 ETH0.000779439828 ETH
0x1d260d2ab7c58a937ca56041a19b0a46b15d6d30ff18ad136066a644488a8db8Multicall33755002021-11-27 9:20:0113 hrs 32 mins ago0x464fd6b8e4dde4352117940a07d7cc93269a77bbOUT Uniswap V3: Positions NFT2.015743020539002 ETH0.001502903867 ETH
0xcac77ab8ecaa2e15be03df4ee3aa971a7f9971cb1cd1181069e6931083cbd8c8Multicall33754922021-11-27 9:20:0113 hrs 32 mins ago0x464fd6b8e4dde4352117940a07d7cc93269a77bbOUT Uniswap V3: Router0 ETH0.001187347919 ETH
0x0169eb8bc5802643c35e1c4e72620eddc6cef2f5ff00bb7cced2852bc2064365Multicall33754592021-11-27 9:18:2813 hrs 33 mins ago0x464fd6b8e4dde4352117940a07d7cc93269a77bbOUT Uniswap V3: Positions NFT0.821055799705815 ETH0.003652343656 ETH
[ Download CSV Export 
Parent Txn Hash Block From To Value
Loading

Contract Name:
0 ETH

Compiler Version
0

Optimization Enabled:
0 ETH

Other Settings:
-NA-
Block Transaction Gas Used Reward
Age Block Fee Address BC Fee Address Voting Power Jailed Incoming
Block Uncle Number Difficulty Gas Used Reward
Loading
Loading
Make sure to use the "Vote Down" button for any spammy posts, and the "Vote Up" for interesting conversations.